Cozumel, Mexico

1:16 PM EST on August 27, 2016 (GMT -0500)
APRSWXNET | | Change Station

Elev 36 ft 20.51 °N, 86.93 °W | Updated 17 minutes ago

Mostly Cloudy
Mostly Cloudy
91 °F
Feels Like 103 °F
N
8
Wind Variable Wind from NNE
Gusts 13.0 mph

Today
High -- | Low -- °F
--% Chance of Precip.
Yesterday
High -- | Low -- °F
Precip. -- in
Pressure 29.89 in
Visibility 7.0 miles
Clouds Scattered Clouds 1800 ft
Mostly Cloudy 30000 ft
Heat Index 103 °F
Dew Point 76 °F
Humidity 62%
Rainfall in
Snow Depth Not available.
6:30 AM 7:07 PM
Waning Crescent, 22% visible
METAR MMUN 271745Z 04009KT 7SM SCT018TCU BKN300 32/25 A2989 RMK SLP122 58009 954 8/208
Pressure 29.89 in
Visibility 7.0 miles
Clouds Scattered Clouds 1800 ft
Mostly Cloudy 30000 ft
Heat Index 103 °F
Dew Point 76 °F
Humidity 62%
Rainfall in
Snow Depth Not available.
6:30 AM 7:07 PM
Waning Crescent, 22% visible
METAR MMUN 271745Z 04009KT 7SM SCT018TCU BKN300 32/25 A2989 RMK SLP122 58009 954 8/208

10-Day Weather Forecast

No radar image for this location.
×

Almanac

Astronomy

Aug. 27, 2016 Rise Set
Actual Time
Civil Twilight
Nautical Twilight
Astronomical Twilight
Moon
Length of Visible Light
Length of Day
Tomorrow will be .
, % of the Moon is Illuminated

Today's Extremes

Country Highs Country Lows

Community

WunderPhotos

Upload Photos

1,935,396 photos uploaded!

WunderBlog® & News

Nearby

Air Quality

  Air Quality AQ Index Pollutant
Not available.

Snow Depth

Station Depth Elevation

Earthquake Activity

City Distance Mag. Time & Date
Minimum magnitude displayed is 2.5.

Coastal Water Temperatures

Place Temperature

Stations

Nearby Weather Stations

Station Location Temp. Windchill Dew Point Humidity Wind Precip. Elev Updated Type